»·PEaware :: N7600K KNYL-KSAN

N7600K :: KNYL-KSAN

FLIGHT INFORMATION

Flight Status: Arrived
Operator: Privately registered:
United States
More flights under this callsign
Pilot: Ryan B. (8502)
Aircraft: BOEING 737-400
(B734)
More flights by this aircraft type
Origin: KNYL Yuma MCAS/Yuma Intl
United States
Destination: KSAN San Diego Intl-Lindbergh
United States
More flights between these airports :: More routes between these airports
Route: +CARGO8 IPL LYNDI4
File this flight plan on PilotEdge
Remarks: CHARTER SERVICE
Altitude:
(Current/Filed)
26,000ft
Speed:
(Current/Filed)
405kts
Departed: 30-May-17 01:38 PM
Arrived: 30-May-17 02:16 PM
Distance/Time
Traveled:
130nm/0:38
Distance/Time
To Go:
Arrived

Flight Plot

Page will automatically refresh every two minutes.

Flight plan parsing failed; only flown route is shown


Map Options




Map Legend


Flown Route
Filed Route
Departure Airport
Arrival Airport
Navaid (VOR, NDB)
Fix

Horizontal Profiles

Position Reports

Time Latitude Longitude Heading Altitude Ground
Speed
30-May-17 13:20 32.660160 -114.610107 86 194ft 0kts
30-May-17 13:21 32.660160 -114.610107 86 194ft 0kts
30-May-17 13:22 32.660160 -114.610107 86 194ft 0kts
30-May-17 13:23 32.660160 -114.610107 86 194ft 0kts
30-May-17 13:24 32.660160 -114.610107 86 194ft 0kts
30-May-17 13:25 32.660160 -114.610107 86 194ft 0kts
30-May-17 13:26 32.660160 -114.610107 86 194ft 0kts
30-May-17 13:27 32.660160 -114.610107 86 194ft 0kts
30-May-17 13:28 32.660160 -114.610107 86 194ft 0kts
30-May-17 13:29 32.660160 -114.610107 86 194ft 0kts
30-May-17 13:30 32.660160 -114.610107 86 194ft 0kts
30-May-17 13:31 32.660160 -114.610107 86 194ft 0kts
30-May-17 13:32 32.660160 -114.610107 86 194ft 0kts
30-May-17 13:33 32.660160 -114.610106 86 194ft 0kts
30-May-17 13:34 32.660160 -114.610106 86 194ft 0kts
30-May-17 13:35 32.660363 -114.609513 33 194ft 8kts
30-May-17 13:36 32.661827 -114.608038 84 194ft 12kts
30-May-17 13:37 32.663283 -114.605516 358 194ft 15kts
30-May-17 13:38 32.664806 -114.605568 1 196ft 0kts
30-May-17 13:39 32.665641 -114.604033 177 197ft 1kts
30-May-17 13:40 32.641495 -114.603514 177 925ft 157kts
30-May-17 13:41 32.619375 -114.565311 68 3268ft 193kts
30-May-17 13:42 32.671528 -114.558889 338 5198ft 233kts
30-May-17 13:43 32.739015 -114.589846 339 6975ft 291kts
30-May-17 13:44 32.806940 -114.644866 317 9957ft 307kts
30-May-17 13:45 32.877807 -114.722017 318 11322ft 378kts
30-May-17 13:46 32.956731 -114.808072 317 14328ft 393kts
30-May-17 13:47 32.993895 -114.919672 245 17248ft 388kts
30-May-17 13:48 32.946260 -115.035030 240 20214ft 392kts
30-May-17 13:49 32.895749 -115.156875 244 21463ft 441kts
30-May-17 13:50 32.840186 -115.290544 245 22855ft 456kts
30-May-17 13:51 32.783923 -115.425405 245 22858ft 456kts
30-May-17 13:52 32.748285 -115.556355 279 25543ft 408kts
30-May-17 13:53 32.753145 -115.676198 277 25816ft 445kts
30-May-17 13:54 32.756779 -115.822067 277 25868ft 447kts
30-May-17 13:55 32.760255 -115.967303 276 25621ft 446kts
30-May-17 13:56 32.763171 -116.109103 276 23777ft 406kts
30-May-17 13:57 32.765685 -116.231996 276 22885ft 353kts
30-May-17 13:58 32.756754 -116.356788 260 19284ft 391kts
30-May-17 13:59 32.738379 -116.479957 260 17360ft 374kts
30-May-17 14:00 32.721225 -116.598027 259 15541ft 358kts
30-May-17 14:01 32.710990 -116.703707 267 13609ft 345kts
30-May-17 14:02 32.707700 -116.810589 265 11601ft 329kts
30-May-17 14:03 32.681410 -116.903459 248 11011ft 269kts
30-May-17 14:04 32.662267 -116.981342 252 9682ft 242kts
30-May-17 14:05 32.644915 -117.054899 252 8033ft 217kts
30-May-17 14:06 32.608833 -117.089735 150 6212ft 202kts
30-May-17 14:07 32.592431 -117.028791 101 4920ft 205kts
30-May-17 14:08 32.583235 -116.961494 101 5003ft 210kts
30-May-17 14:09 32.573715 -116.893431 101 4992ft 210kts
30-May-17 14:10 32.605528 -116.853569 334 4992ft 209kts
30-May-17 14:11 32.652477 -116.890662 311 4983ft 204kts
30-May-17 14:12 32.676683 -116.948479 281 4751ft 199kts
30-May-17 14:13 32.689133 -117.006870 282 3268ft 170kts
30-May-17 14:14 32.701498 -117.057975 283 2550ft 163kts
30-May-17 14:15 32.713514 -117.107089 283 1834ft 147kts
30-May-17 14:16 32.724448 -117.152422 281 789ft 145kts
30-May-17 14:17 32.734693 -117.194443 286 20ft 77kts
30-May-17 14:18 32.734085 -117.196103 106 18ft 13kts
30-May-17 14:19 32.733958 -117.191203 27 20ft 17kts
30-May-17 14:20 32.733605 -117.185095 106 20ft 28kts
30-May-17 14:21 32.732777 -117.178288 53 23ft 0kts

Navigation Log

Ident Type
Flight plan parsing failed, navigation log unavailable